Time;durP1;ratioP1;P1;durP2;ratioP2;P2;SDS_P1;SDS_P2;PMS_P1;PMS_P2;Temp;Humidity;BMP_temperature;BMP_pressure;BME280_temperature;BME280_humidity;BME280_pressure;Samples;Min_cycle;Max_cycle;Signal;HPM_P1;HPM_P2
2021/12/12 00:18:32;;;;;;;6.75;6.03;;;;;;;;;;4683140;29;20122;-63
2021/12/12 00:20:58;;;;;;;8.98;6.35;;;;;;;;;;4135388;34;20589;-63
2021/12/12 00:23:24;;;;;;;7.72;6.93;;;;;;;;;;4135515;34;20131;-71
2021/12/12 00:25:53;;;;;;;7.90;6.12;;;;;;;;;;4136628;34;20594;-71
2021/12/12 00:28:21;;;;;;;7.30;6.37;;;;;;;;;;4137496;34;20120;-72
2021/12/12 00:30:50;;;;;;;6.75;6.00;;;;;;;;;;4137602;34;20135;-73
2021/12/12 00:33:17;;;;;;;7.32;6.22;;;;;;;;;;4125362;34;20111;-73
2021/12/12 00:35:44;;;;;;;7.05;6.35;;;;;;;;;;4137584;34;20114;-73
2021/12/12 00:38:25;;;;;;;7.53;6.47;;;;;;;;;;4137509;34;20520;-73
2021/12/12 00:40:54;;;;;;;8.52;6.97;;;;;;;;;;4125362;34;20682;-64
2021/12/12 00:43:22;;;;;;;8.63;6.75;;;;;;;;;;4137500;34;20212;-63
2021/12/12 00:45:50;;;;;;;6.82;6.03;;;;;;;;;;4137482;34;20527;-64
2021/12/12 00:48:16;;;;;;;7.97;6.50;;;;;;;;;;4124904;34;20549;-64
2021/12/12 00:50:44;;;;;;;9.98;6.55;;;;;;;;;;4136680;34;20111;-64
2021/12/12 00:53:11;;;;;;;10.32;7.03;;;;;;;;;;4136811;34;20224;-64
2021/12/12 00:55:39;;;;;;;9.57;7.40;;;;;;;;;;4137368;34;20202;-64
2021/12/12 00:58:07;;;;;;;12.32;7.55;;;;;;;;;;4137353;34;20492;-64
2021/12/12 01:00:37;;;;;;;11.55;7.40;;;;;;;;;;4137416;34;20104;-64
2021/12/12 01:03:04;;;;;;;26.87;18.35;;;;;;;;;;4137344;34;20220;-64
2021/12/12 01:05:31;;;;;;;11.55;8.38;;;;;;;;;;4137308;34;20200;-64
2021/12/12 01:07:57;;;;;;;11.73;7.57;;;;;;;;;;4137219;34;20219;-64
2021/12/12 01:10:31;;;;;;;12.68;8.07;;;;;;;;;;4137330;34;20582;-64
2021/12/12 01:12:58;;;;;;;16.17;7.68;;;;;;;;;;4137216;34;20096;-64
2021/12/12 01:15:32;;;;;;;9.23;7.00;;;;;;;;;;4137247;34;20117;-64
2021/12/12 01:18:04;;;;;;;10.02;7.30;;;;;;;;;;4137216;34;20244;-64
2021/12/12 01:20:42;;;;;;;10.65;6.45;;;;;;;;;;4137134;34;20460;-64
2021/12/12 01:23:13;;;;;;;10.38;6.62;;;;;;;;;;4137200;34;20134;-64
2021/12/12 01:25:44;;;;;;;9.90;7.75;;;;;;;;;;4137216;34;20111;-64
2021/12/12 01:28:17;;;;;;;12.43;10.23;;;;;;;;;;4137360;34;20554;-64
2021/12/12 01:30:44;;;;;;;14.27;10.27;;;;;;;;;;4137393;34;20111;-64
2021/12/12 01:33:11;;;;;;;13.95;10.00;;;;;;;;;;4137111;34;20114;-64
2021/12/12 01:35:38;;;;;;;11.55;9.60;;;;;;;;;;4137077;34;20118;-64
2021/12/12 01:40:53;;;;;;;14.15;8.00;;;;;;;;;;4137025;34;20216;-64
2021/12/12 01:43:26;;;;;;;16.10;8.80;;;;;;;;;;4137033;34;20231;-64
2021/12/12 01:46:06;;;;;;;16.20;8.70;;;;;;;;;;4124579;34;20111;-64
2021/12/12 01:48:42;;;;;;;13.60;7.12;;;;;;;;;;4124718;34;20217;-64
2021/12/12 01:51:11;;;;;;;14.63;8.35;;;;;;;;;;4136952;34;20199;-64
2021/12/12 01:53:44;;;;;;;15.25;8.20;;;;;;;;;;4137155;34;20123;-64
2021/12/12 01:56:18;;;;;;;23.30;9.73;;;;;;;;;;4136978;34;20211;-64
2021/12/12 01:58:46;;;;;;;25.85;9.93;;;;;;;;;;4137223;34;20130;-64
2021/12/12 02:01:16;;;;;;;25.60;9.07;;;;;;;;;;4136879;34;20468;-64
2021/12/12 02:03:51;;;;;;;28.20;9.43;;;;;;;;;;4124388;34;20208;-64
2021/12/12 02:06:19;;;;;;;17.73;8.48;;;;;;;;;;4124705;34;20111;-64
2021/12/12 02:08:47;;;;;;;16.35;7.72;;;;;;;;;;4136832;34;20486;-64
2021/12/12 02:11:18;;;;;;;20.23;7.80;;;;;;;;;;4136741;34;20102;-64
2021/12/12 02:13:49;;;;;;;12.52;7.60;;;;;;;;;;4124337;34;20115;-64
2021/12/12 02:16:15;;;;;;;12.77;6.72;;;;;;;;;;4136816;34;20092;-64
2021/12/12 02:18:47;;;;;;;10.73;6.68;;;;;;;;;;4124337;34;20220;-63
2021/12/12 02:21:29;;;;;;;14.43;7.22;;;;;;;;;;4136760;34;20609;-64
2021/12/12 02:37:28;;;;;;;14.32;8.57;;;;;;;;;;4136653;34;20219;-64
2021/12/12 02:39:55;;;;;;;14.30;8.55;;;;;;;;;;4124227;34;20099;-63
2021/12/12 02:42:22;;;;;;;13.18;7.85;;;;;;;;;;4124109;34;20465;-64
2021/12/12 02:44:56;;;;;;;12.45;8.15;;;;;;;;;;4136583;34;20233;-64
2021/12/12 02:47:32;;;;;;;16.83;7.68;;;;;;;;;;4136330;34;20220;-64
2021/12/12 02:50:13;;;;;;;11.88;7.93;;;;;;;;;;4136283;34;20134;-64
2021/12/12 02:52:43;;;;;;;11.30;8.38;;;;;;;;;;4136455;34;20436;-64
2021/12/12 02:55:21;;;;;;;12.23;8.35;;;;;;;;;;4136346;34;20170;-64
2021/12/12 02:57:48;;;;;;;15.43;7.75;;;;;;;;;;4136357;34;20113;-64
2021/12/12 03:00:17;;;;;;;15.50;7.82;;;;;;;;;;4136351;34;20115;-64
2021/12/12 03:02:46;;;;;;;11.07;7.70;;;;;;;;;;4136344;34;20124;-64
2021/12/12 03:05:15;;;;;;;11.75;7.05;;;;;;;;;;4136314;34;20115;-64
2021/12/12 03:07:42;;;;;;;14.35;7.20;;;;;;;;;;4136160;34;20119;-64
2021/12/12 03:10:12;;;;;;;13.43;7.90;;;;;;;;;;4136198;34;20544;-64
2021/12/12 03:12:39;;;;;;;14.55;6.35;;;;;;;;;;4136146;34;20100;-64
2021/12/12 03:15:17;;;;;;;22.33;6.90;;;;;;;;;;4136117;34;20126;-63
2021/12/12 03:17:46;;;;;;;20.67;7.75;;;;;;;;;;4136242;34;20130;-64
2021/12/12 03:20:26;;;;;;;19.33;7.18;;;;;;;;;;4136056;34;20119;-64
2021/12/12 03:22:56;;;;;;;20.15;6.47;;;;;;;;;;4136105;34;20120;-64
2021/12/12 03:25:22;;;;;;;18.58;6.45;;;;;;;;;;4136151;34;20115;-64
2021/12/12 03:27:48;;;;;;;10.68;6.18;;;;;;;;;;4135995;34;20111;-63
2021/12/12 03:30:15;;;;;;;16.70;5.78;;;;;;;;;;4136296;34;20104;-64
2021/12/12 03:32:41;;;;;;;9.98;5.68;;;;;;;;;;4136125;34;20119;-64
2021/12/12 03:35:07;;;;;;;9.63;5.50;;;;;;;;;;4135978;34;20523;-64
2021/12/12 03:37:34;;;;;;;11.23;5.65;;;;;;;;;;4136071;34;20107;-64
2021/12/12 03:40:07;;;;;;;11.90;5.90;;;;;;;;;;4135849;34;20115;-64
2021/12/12 03:42:33;;;;;;;9.13;4.80;;;;;;;;;;4136020;34;20114;-64
2021/12/12 03:45:00;;;;;;;10.35;4.87;;;;;;;;;;4123691;34;20511;-64
2021/12/12 03:47:36;;;;;;;12.00;4.90;;;;;;;;;;4135902;34;20523;-63
2021/12/12 03:50:08;;;;;;;6.72;4.20;;;;;;;;;;4135798;34;20200;-64
2021/12/12 03:52:35;;;;;;;8.50;4.50;;;;;;;;;;4136146;34;20118;-63
2021/12/12 03:55:01;;;;;;;10.65;5.28;;;;;;;;;;4135700;34;20445;-64
2021/12/12 03:57:29;;;;;;;8.05;5.25;;;;;;;;;;4135865;34;20122;-64
2021/12/12 03:59:55;;;;;;;12.13;5.03;;;;;;;;;;4136028;34;20303;-64
2021/12/12 04:02:21;;;;;;;10.98;5.03;;;;;;;;;;4137862;34;20117;-64
2021/12/12 04:04:48;;;;;;;10.57;5.53;;;;;;;;;;4137742;34;20119;-64
2021/12/12 04:07:21;;;;;;;13.30;5.45;;;;;;;;;;4137754;34;20107;-64
2021/12/12 04:09:48;;;;;;;9.60;5.50;;;;;;;;;;4138156;34;20228;-64
2021/12/12 04:12:16;;;;;;;12.40;6.12;;;;;;;;;;4137798;34;20175;-64
2021/12/12 04:14:44;;;;;;;12.90;5.50;;;;;;;;;;4137746;34;20138;-64
2021/12/12 04:17:13;;;;;;;9.90;5.45;;;;;;;;;;4137744;34;20114;-64
2021/12/12 04:19:44;;;;;;;16.73;6.30;;;;;;;;;;4137763;34;20138;-64
2021/12/12 04:22:10;;;;;;;13.57;5.75;;;;;;;;;;4137718;34;20131;-64
2021/12/12 04:24:42;;;;;;;9.50;6.03;;;;;;;;;;4137782;34;20119;-63
2021/12/12 04:27:09;;;;;;;13.15;6.35;;;;;;;;;;4137776;34;20098;-64
2021/12/12 04:29:38;;;;;;;9.45;6.03;;;;;;;;;;4137788;34;20130;-64
2021/12/12 04:32:10;;;;;;;11.43;5.90;;;;;;;;;;4137920;34;20107;-64
2021/12/12 04:34:53;;;;;;;20.55;8.13;;;;;;;;;;4137591;34;20195;-64
2021/12/12 04:37:20;;;;;;;25.10;11.27;;;;;;;;;;4125401;34;20135;-63
2021/12/12 04:39:49;;;;;;;24.75;12.27;;;;;;;;;;4137467;34;20103;-64
2021/12/12 04:42:20;;;;;;;25.45;13.57;;;;;;;;;;4137545;34;20127;-64
2021/12/12 04:44:49;;;;;;;29.70;13.73;;;;;;;;;;4137570;34;20126;-63
2021/12/12 04:50:21;;;;;;;28.15;13.35;;;;;;;;;;4137372;34;20157;-64
2021/12/12 04:53:08;;;;;;;34.13;13.23;;;;;;;;;;4124951;34;20614;-64
2021/12/12 04:55:41;;;;;;;32.92;13.88;;;;;;;;;;4137411;34;20476;-64
2021/12/12 04:58:19;;;;;;;30.08;13.88;;;;;;;;;;4124900;34;20126;-64
2021/12/12 05:00:52;;;;;;;28.27;13.35;;;;;;;;;;4124915;34;20464;-64
2021/12/12 05:03:29;;;;;;;27.15;14.45;;;;;;;;;;4137292;34;20100;-64
2021/12/12 05:06:03;;;;;;;33.08;14.87;;;;;;;;;;4137358;34;20190;-64
2021/12/12 05:09:00;;;;;;;28.40;14.32;;;;;;;;;;4137349;34;20453;-64
2021/12/12 05:11:54;;;;;;;30.58;14.07;;;;;;;;;;4120982;34;20127;-64
2021/12/12 05:14:23;;;;;;;24.20;11.23;;;;;;;;;;4116047;34;20132;-64
2021/12/12 05:16:53;;;;;;;17.62;7.78;;;;;;;;;;4125015;34;20131;-64
2021/12/12 05:19:25;;;;;;;10.50;6.07;;;;;;;;;;4137203;34;20111;-64
2021/12/12 05:21:55;;;;;;;9.02;5.50;;;;;;;;;;4137236;34;20117;-64
2021/12/12 05:24:23;;;;;;;8.75;4.57;;;;;;;;;;4125044;34;20491;-64
2021/12/12 05:26:54;;;;;;;12.50;7.82;;;;;;;;;;4124697;34;20115;-64
2021/12/12 05:29:30;;;;;;;10.20;5.00;;;;;;;;;;4137310;34;20118;-64
2021/12/12 05:31:58;;;;;;;;;;;;;;;;;;4124966;34;20123;-64
2021/12/12 05:34:27;;;;;;;13.48;5.70;;;;;;;;;;4124683;34;20051;-64
2021/12/12 05:36:54;;;;;;;13.18;7.25;;;;;;;;;;4137101;34;20182;-64
2021/12/12 05:39:21;;;;;;;8.43;6.70;;;;;;;;;;4124981;34;20114;-64
2021/12/12 05:41:48;;;;;;;8.60;6.55;;;;;;;;;;4124467;34;20108;-64
2021/12/12 05:44:15;;;;;;;17.20;7.68;;;;;;;;;;4137123;34;20107;-64
2021/12/12 05:46:42;;;;;;;28.30;10.23;;;;;;;;;;4124680;34;20131;-64
2021/12/12 05:49:08;;;;;;;33.35;11.50;;;;;;;;;;4124570;34;20551;-64
2021/12/12 05:51:36;;;;;;;35.90;12.43;;;;;;;;;;4124459;34;20114;-64
2021/12/12 05:54:03;;;;;;;39.80;13.13;;;;;;;;;;4136810;34;20199;-64
2021/12/12 05:56:32;;;;;;;38.50;13.07;;;;;;;;;;4137011;34;20176;-64
2021/12/12 05:58:59;;;;;;;38.08;13.65;;;;;;;;;;4137002;34;20092;-64
2021/12/12 06:01:25;;;;;;;36.65;12.90;;;;;;;;;;4136895;34;20122;-64
2021/12/12 06:03:52;;;;;;;26.48;12.32;;;;;;;;;;4124255;34;20123;-64
2021/12/12 06:06:21;;;;;;;33.97;12.10;;;;;;;;;;4136977;34;20515;-64
2021/12/12 06:08:48;;;;;;;29.00;13.60;;;;;;;;;;4124175;34;20123;-64
2021/12/12 06:11:16;;;;;;;30.80;13.45;;;;;;;;;;4124362;34;20610;-64
2021/12/12 06:13:42;;;;;;;29.87;11.90;;;;;;;;;;4124574;34;20216;-64
2021/12/12 06:16:09;;;;;;;30.90;12.23;;;;;;;;;;4124275;34;20102;-64
2021/12/12 06:18:36;;;;;;;33.83;12.70;;;;;;;;;;4124400;34;20321;-64
2021/12/12 06:21:03;;;;;;;35.63;13.95;;;;;;;;;;4124298;34;20571;-64
2021/12/12 06:23:29;;;;;;;41.15;19.45;;;;;;;;;;4136342;34;20098;-64
2021/12/12 06:25:56;;;;;;;28.08;15.02;;;;;;;;;;4136664;34;20103;-64
2021/12/12 06:28:31;;;;;;;33.97;13.27;;;;;;;;;;4136878;34;20096;-64
2021/12/12 06:30:58;;;;;;;36.35;11.90;;;;;;;;;;4136754;34;20120;-64
2021/12/12 06:33:24;;;;;;;37.63;14.00;;;;;;;;;;4136627;34;20110;-64
2021/12/12 06:35:52;;;;;;;27.10;11.12;;;;;;;;;;4136626;34;20114;-64
2021/12/12 06:38:19;;;;;;;26.58;11.32;;;;;;;;;;4136525;34;20175;-64
2021/12/12 06:40:46;;;;;;;29.37;11.30;;;;;;;;;;4136805;34;20217;-64
2021/12/12 06:43:14;;;;;;;29.63;11.82;;;;;;;;;;4136558;34;20433;-65
2021/12/12 06:45:40;;;;;;;19.55;10.75;;;;;;;;;;4124192;34;20527;-64
2021/12/12 06:48:08;;;;;;;24.17;11.02;;;;;;;;;;4136348;34;20115;-64
2021/12/12 06:50:35;;;;;;;25.48;10.82;;;;;;;;;;4136483;34;20128;-64
2021/12/12 06:53:01;;;;;;;16.90;10.90;;;;;;;;;;4136322;34;20092;-65
2021/12/12 06:55:30;;;;;;;27.67;13.02;;;;;;;;;;4136359;34;20127;-64
2021/12/12 06:57:56;;;;;;;20.85;10.82;;;;;;;;;;4136210;34;20126;-64
2021/12/12 07:00:24;;;;;;;15.82;9.80;;;;;;;;;;4123930;34;20120;-64
2021/12/12 07:02:51;;;;;;;24.73;10.48;;;;;;;;;;4136319;34;20121;-64
2021/12/12 07:05:21;;;;;;;34.80;11.35;;;;;;;;;;4124045;34;20212;-64
2021/12/12 07:07:48;;;;;;;20.83;10.32;;;;;;;;;;4136381;34;20119;-64
2021/12/12 07:10:16;;;;;;;23.70;9.70;;;;;;;;;;4136468;34;20127;-64
2021/12/12 07:12:43;;;;;;;21.60;10.23;;;;;;;;;;4136163;34;20281;-65
2021/12/12 07:15:11;;;;;;;23.42;9.48;;;;;;;;;;4136208;34;20130;-64
2021/12/12 07:17:37;;;;;;;28.45;10.02;;;;;;;;;;4136349;34;20107;-64
2021/12/12 07:20:05;;;;;;;25.50;10.30;;;;;;;;;;4123646;34;20118;-64
2021/12/12 07:22:32;;;;;;;24.52;10.23;;;;;;;;;;4136209;34;20519;-64
2021/12/12 07:25:04;;;;;;;31.12;9.85;;;;;;;;;;4123689;34;20116;-64
2021/12/12 07:27:30;;;;;;;20.85;9.73;;;;;;;;;;4136318;34;20107;-65
2021/12/12 07:29:56;;;;;;;38.88;9.98;;;;;;;;;;4136222;34;20123;-64
2021/12/12 07:32:23;;;;;;;21.45;9.63;;;;;;;;;;4123856;34;20135;-64
2021/12/12 07:34:49;;;;;;;21.40;10.05;;;;;;;;;;4124654;34;20212;-65
2021/12/12 07:37:15;;;;;;;28.67;10.30;;;;;;;;;;4138214;34;20534;-64
2021/12/12 07:39:42;;;;;;;25.10;9.32;;;;;;;;;;4137987;34;20131;-64
2021/12/12 07:42:09;;;;;;;26.40;9.65;;;;;;;;;;4138009;34;20107;-64
2021/12/12 07:44:37;;;;;;;22.50;9.05;;;;;;;;;;4137768;34;20633;-64
2021/12/12 07:47:05;;;;;;;25.17;11.65;;;;;;;;;;4137915;34;20236;-64
2021/12/12 07:49:35;;;;;;;26.52;9.15;;;;;;;;;;4137951;34;20110;-64
2021/12/12 07:52:04;;;;;;;26.25;9.70;;;;;;;;;;4137997;34;20114;-64
2021/12/12 07:54:31;;;;;;;20.80;10.65;;;;;;;;;;4137732;34;20524;-64
2021/12/12 07:56:57;;;;;;;26.70;9.90;;;;;;;;;;4137854;34;20104;-64
2021/12/12 07:59:23;;;;;;;19.42;9.23;;;;;;;;;;4137829;34;20100;-64
2021/12/12 08:01:51;;;;;;;24.00;10.88;;;;;;;;;;4125362;34;20131;-66
2021/12/12 08:04:21;;;;;;;19.95;11.02;;;;;;;;;;4137824;34;20129;-63
2021/12/12 08:06:48;;;;;;;21.35;11.30;;;;;;;;;;4137776;34;20198;-64
2021/12/12 08:09:15;;;;;;;20.95;11.12;;;;;;;;;;4137650;34;20110;-64
2021/12/12 08:11:42;;;;;;;23.33;10.68;;;;;;;;;;4137692;34;20134;-64
2021/12/12 08:14:14;;;;;;;17.42;9.25;;;;;;;;;;4137668;34;20098;-64
2021/12/12 08:16:40;;;;;;;20.83;9.57;;;;;;;;;;4137980;34;20112;-63
2021/12/12 08:19:06;;;;;;;22.20;9.38;;;;;;;;;;4137480;34;20116;-64
2021/12/12 08:21:33;;;;;;;28.30;12.75;;;;;;;;;;4125472;34;20514;-64
2021/12/12 08:24:04;;;;;;;22.65;11.88;;;;;;;;;;4125125;34;20123;-64
2021/12/12 08:26:32;;;;;;;25.92;14.80;;;;;;;;;;4125204;34;20201;-64
2021/12/12 08:28:58;;;;;;;24.08;14.27;;;;;;;;;;4137515;34;20127;-64
2021/12/12 08:31:26;;;;;;;26.17;14.10;;;;;;;;;;4125408;34;20151;-64
2021/12/12 08:33:52;;;;;;;43.35;14.85;;;;;;;;;;4137371;34;20100;-64
2021/12/12 08:36:18;;;;;;;27.17;14.30;;;;;;;;;;4137767;34;20492;-64
2021/12/12 08:38:45;;;;;;;34.65;16.08;;;;;;;;;;4137187;34;20334;-64
2021/12/12 08:41:11;;;;;;;31.87;14.60;;;;;;;;;;4137520;34;20123;-64
2021/12/12 08:43:39;;;;;;;36.20;16.02;;;;;;;;;;4137371;34;20103;-64
2021/12/12 08:46:11;;;;;;;36.60;19.23;;;;;;;;;;4137139;34;20667;-65
2021/12/12 08:48:43;;;;;;;29.10;18.48;;;;;;;;;;4131383;34;20138;-66
2021/12/12 08:51:17;;;;;;;33.20;20.17;;;;;;;;;;4137171;34;20091;-66
2021/12/12 08:53:45;;;;;;;36.97;19.45;;;;;;;;;;4134910;34;20219;-66
2021/12/12 08:56:19;;;;;;;31.87;18.35;;;;;;;;;;4137104;34;20535;-65
2021/12/12 08:58:46;;;;;;;28.83;16.77;;;;;;;;;;4125320;34;20096;-66
2021/12/12 09:01:16;;;;;;;42.17;18.33;;;;;;;;;;4137223;34;20122;-66
2021/12/12 09:03:52;;;;;;;23.70;14.63;;;;;;;;;;4136968;34;20522;-65
2021/12/12 09:06:19;;;;;;;25.33;15.35;;;;;;;;;;4137379;34;20520;-66
2021/12/12 09:08:55;;;;;;;22.30;13.85;;;;;;;;;;4124496;34;20119;-66
2021/12/12 09:11:33;;;;;;;22.37;14.87;;;;;;;;;;4124827;34;20477;-65
2021/12/12 09:14:10;;;;;;;22.73;13.62;;;;;;;;;;4136963;34;20118;-64
2021/12/12 09:16:43;;;;;;;27.08;14.10;;;;;;;;;;4124862;34;20110;-65
2021/12/12 09:19:13;;;;;;;20.75;12.65;;;;;;;;;;4136760;34;20524;-65
2021/12/12 09:21:48;;;;;;;24.12;13.50;;;;;;;;;;4136935;34;20528;-64
2021/12/12 09:24:32;;;;;;;19.30;12.90;;;;;;;;;;4136960;34;20461;-65
2021/12/12 09:27:05;;;;;;;26.00;15.07;;;;;;;;;;4137012;34;20194;-64
2021/12/12 09:29:43;;;;;;;32.78;19.67;;;;;;;;;;4123689;34;20562;-64
2021/12/12 09:32:42;;;;;;;32.72;21.73;;;;;;;;;;4124334;34;20104;-65
2021/12/12 09:35:10;;;;;;;49.97;35.65;;;;;;;;;;4123309;34;20115;-64
2021/12/12 09:37:46;;;;;;;63.63;45.90;;;;;;;;;;4136862;34;20182;-65
2021/12/12 09:40:20;;;;;;;71.12;49.83;;;;;;;;;;4137096;34;20116;-65
2021/12/12 09:42:54;;;;;;;77.55;52.15;;;;;;;;;;4137124;34;20129;-65
2021/12/12 09:45:54;;;;;;;71.25;51.42;;;;;;;;;;4124352;34;20115;-65
2021/12/12 09:51:45;;;;;;;61.92;43.25;;;;;;;;;;4136966;34;20720;-65
2021/12/12 09:54:32;;;;;;;60.45;36.28;;;;;;;;;;4124505;34;20566;-66
2021/12/12 09:57:16;;;;;;;55.45;35.70;;;;;;;;;;4136904;34;20127;-66
2021/12/12 10:00:20;;;;;;;63.13;39.25;;;;;;;;;;4136839;34;20537;-66
2021/12/12 10:02:55;;;;;;;51.47;35.60;;;;;;;;;;4107795;34;20221;-65
2021/12/12 10:05:40;;;;;;;63.75;42.60;;;;;;;;;;4107930;34;20155;-66
2021/12/12 10:08:36;;;;;;;59.20;33.35;;;;;;;;;;4125636;34;20120;-65
2021/12/12 10:11:20;;;;;;;50.95;30.83;;;;;;;;;;4136779;34;20099;-65
2021/12/12 10:14:08;;;;;;;40.78;28.48;;;;;;;;;;4136727;34;20541;-64
2021/12/12 10:16:49;;;;;;;39.58;26.15;;;;;;;;;;4124386;34;20426;-61
2021/12/12 10:19:42;;;;;;;43.47;27.98;;;;;;;;;;4136767;34;20096;-65
2021/12/12 10:22:42;;;;;;;37.95;25.58;;;;;;;;;;4136789;34;20131;-68
2021/12/12 10:25:14;;;;;;;39.60;22.83;;;;;;;;;;4136571;34;20121;-64
2021/12/12 10:27:53;;;;;;;38.95;22.58;;;;;;;;;;4136548;34;20578;-62
2021/12/12 10:30:28;;;;;;;38.53;19.37;;;;;;;;;;4124373;34;20100;-64
2021/12/12 10:32:53;;;;;;;36.72;18.92;;;;;;;;;;4111044;34;20122;-68
2021/12/12 10:35:28;;;;;;;39.00;18.25;;;;;;;;;;4123211;34;20111;-76
2021/12/12 10:37:57;;;;;;;31.58;18.05;;;;;;;;;;4121818;34;20231;-60
2021/12/12 10:40:33;;;;;;;29.90;17.73;;;;;;;;;;4123068;34;20119;-64
2021/12/12 10:43:04;;;;;;;28.62;17.02;;;;;;;;;;4132341;34;20200;-62
2021/12/12 10:45:33;;;;;;;37.47;18.48;;;;;;;;;;4136819;34;20096;-61
2021/12/12 10:48:04;;;;;;;36.13;16.67;;;;;;;;;;4124647;34;20107;-64
2021/12/12 10:50:41;;;;;;;39.30;17.35;;;;;;;;;;4123166;34;20107;-64
2021/12/12 10:53:27;;;;;;;34.83;14.73;;;;;;;;;;4122653;34;20200;-65
2021/12/12 10:56:05;;;;;;;43.65;15.15;;;;;;;;;;4123300;34;20124;-65
2021/12/12 10:58:46;;;;;;;34.40;15.57;;;;;;;;;;4123061;34;20634;-65
2021/12/12 11:01:23;;;;;;;31.70;15.30;;;;;;;;;;4110902;34;20445;-65
2021/12/12 11:03:55;;;;;;;35.83;15.80;;;;;;;;;;4110762;34;20115;-65
2021/12/12 11:06:33;;;;;;;32.42;14.77;;;;;;;;;;4133189;34;20601;-64
2021/12/12 11:09:03;;;;;;;43.05;15.50;;;;;;;;;;4135868;34;20204;-64
2021/12/12 11:11:34;;;;;;;32.40;15.07;;;;;;;;;;4136222;34;20127;-65
2021/12/12 11:14:12;;;;;;;37.08;18.02;;;;;;;;;;4136113;34;20123;-65
2021/12/12 11:16:45;;;;;;;49.50;19.27;;;;;;;;;;4136613;34;20187;-64
2021/12/12 11:19:17;;;;;;;39.05;22.23;;;;;;;;;;4123597;34;20211;-64
2021/12/12 11:21:51;;;;;;;46.40;23.25;;;;;;;;;;4123768;34;20095;-65
2021/12/12 11:24:32;;;;;;;44.28;25.00;;;;;;;;;;4123839;34;20139;-64
2021/12/12 11:27:11;;;;;;;53.67;25.15;;;;;;;;;;4136345;34;20760;-65
2021/12/12 11:29:40;;;;;;;46.45;15.80;;;;;;;;;;4136219;34;20127;-64
2021/12/12 11:32:07;;;;;;;34.22;14.43;;;;;;;;;;4135978;34;20105;-64
2021/12/12 11:34:33;;;;;;;35.42;14.57;;;;;;;;;;4136395;34;20120;-65
2021/12/12 11:37:33;;;;;;;34.72;14.82;;;;;;;;;;4123601;34;20516;-65
2021/12/12 11:40:05;;;;;;;35.35;15.10;;;;;;;;;;4123805;34;20123;-64
2021/12/12 11:42:41;;;;;;;30.08;14.32;;;;;;;;;;4136034;34;20483;-64
2021/12/12 11:45:11;;;;;;;;;;;;;;;;;;4123921;34;20222;-64
2021/12/12 11:47:56;;;;;;;37.20;15.63;;;;;;;;;;4134734;34;20445;-64
2021/12/12 11:51:06;;;;;;;32.05;15.20;;;;;;;;;;4135920;34;20119;-64
2021/12/12 11:53:45;;;;;;;37.47;18.55;;;;;;;;;;4122036;34;20130;-63
2021/12/12 11:56:25;;;;;;;35.55;17.73;;;;;;;;;;4135795;34;20599;-65
2021/12/12 11:59:10;;;;;;;38.78;16.52;;;;;;;;;;4135854;34;20115;-64
2021/12/12 12:01:51;;;;;;;33.78;16.00;;;;;;;;;;4123352;34;20111;-63
2021/12/12 12:04:32;;;;;;;43.50;16.55;;;;;;;;;;4123461;34;20119;-65
2021/12/12 12:07:24;;;;;;;40.58;19.10;;;;;;;;;;4135677;34;20106;-65
2021/12/12 12:09:59;;;;;;;43.03;23.08;;;;;;;;;;4135593;34;20096;-64
2021/12/12 12:12:53;;;;;;;42.50;23.45;;;;;;;;;;4135748;34;20211;-64
2021/12/12 12:15:40;;;;;;;53.72;27.37;;;;;;;;;;4135866;34;20100;-64
2021/12/12 12:18:41;;;;;;;51.45;22.08;;;;;;;;;;4135499;34;20116;-64
2021/12/12 12:21:19;;;;;;;51.10;26.95;;;;;;;;;;4118008;34;20198;-64
2021/12/12 12:26:51;;;;;;;58.17;23.77;;;;;;;;;;4137926;34;20182;-64
2021/12/12 12:29:33;;;;;;;56.20;22.60;;;;;;;;;;4137645;34;20202;-64
2021/12/12 12:32:36;;;;;;;51.83;21.55;;;;;;;;;;4137269;34;20520;-64
2021/12/12 12:35:50;;;;;;;46.58;19.45;;;;;;;;;;4132108;34;20122;-64
2021/12/12 12:38:54;;;;;;;23.87;13.18;;;;;;;;;;4133147;34;20520;-63
2021/12/12 12:41:42;;;;;;;24.55;10.07;;;;;;;;;;4137449;34;20115;-63
2021/12/12 12:44:33;;;;;;;32.47;13.75;;;;;;;;;;4137474;34;20099;-64
2021/12/12 12:47:35;;;;;;;20.80;10.65;;;;;;;;;;4137377;34;20194;-64
2021/12/12 12:50:33;;;;;;;23.52;13.52;;;;;;;;;;4137484;34;20559;-66
2021/12/12 12:53:08;;;;;;;32.30;18.27;;;;;;;;;;4137385;34;20119;-65
2021/12/12 12:56:14;;;;;;;31.90;13.62;;;;;;;;;;4137393;34;20130;-66
2021/12/12 12:58:58;;;;;;;44.33;26.12;;;;;;;;;;4137406;34;20212;-66
2021/12/12 13:01:44;;;;;;;37.85;17.58;;;;;;;;;;4137570;34;20199;-65
2021/12/12 13:04:33;;;;;;;33.67;17.70;;;;;;;;;;4125035;34;20103;-66
2021/12/12 13:12:09;;;;;;;20.05;12.15;;;;;;;;;;4019488;35;20124;-70
2021/12/12 13:14:53;;;;;;;23.17;12.95;;;;;;;;;;4051316;35;20125;-71
2021/12/12 13:17:59;;;;;;;19.50;12.15;;;;;;;;;;4121214;34;20241;-73
2021/12/12 13:21:16;;;;;;;19.98;11.30;;;;;;;;;;4081966;35;20124;-70
2021/12/12 13:23:55;;;;;;;18.35;12.45;;;;;;;;;;4121325;34;20121;-72
2021/12/12 13:26:46;;;;;;;23.80;10.48;;;;;;;;;;4110609;34;20108;-74
2021/12/12 13:29:36;;;;;;;10.35;7.47;;;;;;;;;;4121674;34;20123;-73
2021/12/12 13:32:27;;;;;;;10.23;8.18;;;;;;;;;;4137049;34;20130;-73
2021/12/12 13:35:02;;;;;;;15.32;8.20;;;;;;;;;;4136991;34;20584;-71
2021/12/12 13:37:37;;;;;;;13.70;7.87;;;;;;;;;;4137129;34;20122;-73
2021/12/12 13:40:18;;;;;;;12.50;8.13;;;;;;;;;;4124913;34;20208;-73
2021/12/12 13:43:12;;;;;;;19.05;10.48;;;;;;;;;;4124379;34;20095;-69
2021/12/12 13:45:59;;;;;;;17.70;9.02;;;;;;;;;;4136855;34;20563;-68
2021/12/12 13:48:53;;;;;;;18.92;10.80;;;;;;;;;;4115694;34;20558;-70
2021/12/12 13:51:58;;;;;;;18.15;11.48;;;;;;;;;;4135962;34;20118;-70
2021/12/12 13:54:36;;;;;;;19.73;14.15;;;;;;;;;;4136606;34;20130;-70
2021/12/12 13:57:10;;;;;;;31.85;14.48;;;;;;;;;;4136700;34;20115;-74
2021/12/12 14:00:16;;;;;;;26.02;16.50;;;;;;;;;;4136787;34;20213;-70
2021/12/12 14:02:46;;;;;;;31.23;15.97;;;;;;;;;;4136836;34;20107;-68
2021/12/12 14:05:20;;;;;;;30.75;21.08;;;;;;;;;;4124406;34;20486;-70
2021/12/12 14:07:50;;;;;;;43.63;24.08;;;;;;;;;;4136774;34;20118;-68
2021/12/12 14:10:38;;;;;;;49.05;26.02;;;;;;;;;;4136713;34;20126;-70
2021/12/12 14:13:10;;;;;;;79.45;28.35;;;;;;;;;;4136383;34;20131;-67
2021/12/12 14:15:46;;;;;;;55.20;27.60;;;;;;;;;;4124204;34;20167;-67
2021/12/12 14:18:12;;;;;;;46.67;28.00;;;;;;;;;;4136836;34;20120;-68
2021/12/12 14:20:43;;;;;;;61.83;29.85;;;;;;;;;;4136643;34;20119;-68
2021/12/12 14:23:13;;;;;;;51.53;27.08;;;;;;;;;;4136570;34;20551;-69
2021/12/12 14:25:43;;;;;;;44.42;25.17;;;;;;;;;;4136632;34;20528;-68
2021/12/12 14:28:10;;;;;;;45.95;25.77;;;;;;;;;;4124223;34;20119;-68
2021/12/12 14:30:38;;;;;;;57.20;27.40;;;;;;;;;;4124088;34;20127;-68
2021/12/12 14:33:10;;;;;;;63.25;31.75;;;;;;;;;;4136494;34;20123;-68
2021/12/12 14:35:43;;;;;;;84.03;36.42;;;;;;;;;;4136629;34;20196;-68
2021/12/12 14:38:11;;;;;;;82.32;36.47;;;;;;;;;;4136921;34;20540;-68
2021/12/12 14:40:43;;;;;;;99.10;48.80;;;;;;;;;;4123949;34;20132;-67
2021/12/12 14:43:42;;;;;;;154.93;62.45;;;;;;;;;;4136254;34;20127;-67
2021/12/12 14:46:29;;;;;;;154.55;72.80;;;;;;;;;;4136534;34;20170;-67
2021/12/12 14:48:59;;;;;;;153.93;69.35;;;;;;;;;;4136378;34;20104;-67
2021/12/12 14:51:29;;;;;;;149.07;63.28;;;;;;;;;;4136587;34;20516;-67
2021/12/12 14:54:03;;;;;;;118.22;58.95;;;;;;;;;;4136330;34;20114;-68
2021/12/12 14:56:34;;;;;;;126.18;61.28;;;;;;;;;;4136427;34;20208;-66
2021/12/12 14:59:05;;;;;;;95.03;45.40;;;;;;;;;;4123916;34;20484;-68
2021/12/12 15:01:48;;;;;;;109.22;45.08;;;;;;;;;;4136684;34;20503;-67
2021/12/12 15:04:25;;;;;;;111.40;46.28;;;;;;;;;;4123849;34;20102;-68
2021/12/12 15:07:07;;;;;;;89.45;43.72;;;;;;;;;;4136558;34;20107;-67
2021/12/12 15:09:51;;;;;;;100.00;48.05;;;;;;;;;;4136448;34;20635;-67
2021/12/12 15:12:29;;;;;;;91.68;45.55;;;;;;;;;;4136392;34;20195;-68
2021/12/12 15:15:01;;;;;;;82.80;42.20;;;;;;;;;;4136382;34;20127;-65
2021/12/12 15:17:28;;;;;;;82.90;43.90;;;;;;;;;;4136320;34;20198;-66
2021/12/12 15:19:59;;;;;;;85.72;40.88;;;;;;;;;;4123702;34;20100;-66
2021/12/12 15:22:47;;;;;;;77.87;39.15;;;;;;;;;;4136301;34;20189;-66
2021/12/12 15:25:19;;;;;;;76.32;40.80;;;;;;;;;;4136114;34;20087;-67
2021/12/12 15:27:48;;;;;;;89.53;41.58;;;;;;;;;;4136100;34;20212;-71
2021/12/12 15:30:20;;;;;;;85.05;43.72;;;;;;;;;;4136033;34;20119;-69
2021/12/12 15:32:54;;;;;;;96.57;43.83;;;;;;;;;;4136213;34;20214;-69
2021/12/12 15:35:22;;;;;;;96.93;45.17;;;;;;;;;;4123017;34;20563;-73
2021/12/12 15:37:49;;;;;;;91.45;47.53;;;;;;;;;;4135633;34;20163;-71
2021/12/12 15:40:37;;;;;;;80.15;47.53;;;;;;;;;;4123474;34;20208;-77
2021/12/12 15:43:07;;;;;;;90.12;43.83;;;;;;;;;;4136020;34;20122;-76
2021/12/12 15:45:39;;;;;;;62.42;36.85;;;;;;;;;;4123815;34;20121;-75
2021/12/12 15:48:14;;;;;;;70.43;36.17;;;;;;;;;;4123513;34;20671;-77
2021/12/12 15:50:41;;;;;;;63.97;34.17;;;;;;;;;;4123827;34;20112;-78